sensor_id;sensor_type;location;lat;lon;timestamp;temperature;humidity
2565;DHT22;1292;48.020;7.822;2023-04-25T05:47:30;9.60;99.90
2565;DHT22;1292;48.020;7.822;2023-04-25T05:49:57;9.50;99.90
2565;DHT22;1292;48.020;7.822;2023-04-25T05:52:24;9.50;99.90
2565;DHT22;1292;48.020;7.822;2023-04-25T05:54:50;9.20;99.90
2565;DHT22;1292;48.020;7.822;2023-04-25T05:57:22;9.10;99.90
2565;DHT22;1292;48.020;7.822;2023-04-25T05:59:49;9.00;99.90
2565;DHT22;1292;48.020;7.822;2023-04-25T06:02:17;8.80;99.90
2565;DHT22;1292;48.020;7.822;2023-04-25T06:04:45;8.70;99.90
2565;DHT22;1292;48.020;7.822;2023-04-25T06:07:12;8.70;99.90
2565;DHT22;1292;48.020;7.822;2023-04-25T06:09:39;8.70;99.90
2565;DHT22;1292;48.020;7.822;2023-04-25T06:12:06;8.60;99.90
2565;DHT22;1292;48.020;7.822;2023-04-25T06:14:33;8.50;99.90
2565;DHT22;1292;48.020;7.822;2023-04-25T06:17:00;8.40;99.90
2565;DHT22;1292;48.020;7.822;2023-04-25T06:19:31;8.40;99.90
2565;DHT22;1292;48.020;7.822;2023-04-25T06:22:00;8.50;99.90
2565;DHT22;1292;48.020;7.822;2023-04-25T06:24:26;8.40;99.90
2565;DHT22;1292;48.020;7.822;2023-04-25T06:26:53;8.50;99.90
2565;DHT22;1292;48.020;7.822;2023-04-25T06:29:20;8.50;99.90
2565;DHT22;1292;48.020;7.822;2023-04-25T06:31:47;8.60;99.90
2565;DHT22;1292;48.020;7.822;2023-04-25T06:34:14;8.60;99.90
2565;DHT22;1292;48.020;7.822;2023-04-25T06:36:41;8.60;99.90
2565;DHT22;1292;48.020;7.822;2023-04-25T06:39:09;8.70;99.90
2565;DHT22;1292;48.020;7.822;2023-04-25T06:41:36;8.60;99.90
2565;DHT22;1292;48.020;7.822;2023-04-25T06:44:02;8.60;99.90
2565;DHT22;1292;48.020;7.822;2023-04-25T06:46:29;8.50;99.90
2565;DHT22;1292;48.020;7.822;2023-04-25T06:48:56;8.40;99.90
2565;DHT22;1292;48.020;7.822;2023-04-25T06:51:23;8.40;99.90
2565;DHT22;1292;48.020;7.822;2023-04-25T06:53:50;8.30;99.90
2565;DHT22;1292;48.020;7.822;2023-04-25T06:56:18;8.50;99.90
2565;DHT22;1292;48.020;7.822;2023-04-25T06:58:45;8.60;99.90
2565;DHT22;1292;48.020;7.822;2023-04-25T07:01:11;8.60;99.90
2565;DHT22;1292;48.020;7.822;2023-04-25T07:03:38;8.70;99.90
2565;DHT22;1292;48.020;7.822;2023-04-25T07:06:06;8.70;99.90
2565;DHT22;1292;48.020;7.822;2023-04-25T07:08:33;8.70;99.90
2565;DHT22;1292;48.020;7.822;2023-04-25T07:10:59;8.60;99.90
2565;DHT22;1292;48.020;7.822;2023-04-25T07:13:28;8.60;99.90
2565;DHT22;1292;48.020;7.822;2023-04-25T07:15:55;8.60;99.90
2565;DHT22;1292;48.020;7.822;2023-04-25T07:18:22;8.50;99.90
2565;DHT22;1292;48.020;7.822;2023-04-25T07:20:49;8.30;99.90
2565;DHT22;1292;48.020;7.822;2023-04-25T07:23:16;8.40;99.90
2565;DHT22;1292;48.020;7.822;2023-04-25T07:25:42;8.60;99.90
2565;DHT22;1292;48.020;7.822;2023-04-25T07:28:09;8.50;99.90
2565;DHT22;1292;48.020;7.822;2023-04-25T07:30:37;8.70;99.90
2565;DHT22;1292;48.020;7.822;2023-04-25T07:33:04;8.70;99.90
2565;DHT22;1292;48.020;7.822;2023-04-25T07:35:31;8.70;99.90
2565;DHT22;1292;48.020;7.822;2023-04-25T07:37:58;8.60;99.90
2565;DHT22;1292;48.020;7.822;2023-04-25T07:40:25;8.50;99.90
2565;DHT22;1292;48.020;7.822;2023-04-25T07:42:52;8.60;99.90
2565;DHT22;1292;48.020;7.822;2023-04-25T07:45:19;8.70;99.90
2565;DHT22;1292;48.020;7.822;2023-04-25T07:47:47;8.80;99.90
2565;DHT22;1292;48.020;7.822;2023-04-25T07:50:14;8.90;99.90
2565;DHT22;1292;48.020;7.822;2023-04-25T07:52:40;8.90;99.90
2565;DHT22;1292;48.020;7.822;2023-04-25T07:55:08;8.90;99.90
2565;DHT22;1292;48.020;7.822;2023-04-25T07:57:35;9.00;99.90
2565;DHT22;1292;48.020;7.822;2023-04-25T08:00:03;9.10;99.90
2565;DHT22;1292;48.020;7.822;2023-04-25T08:02:34;9.20;99.90
2565;DHT22;1292;48.020;7.822;2023-04-25T08:05:03;9.10;99.90
2565;DHT22;1292;48.020;7.822;2023-04-25T08:07:30;9.20;99.90
2565;DHT22;1292;48.020;7.822;2023-04-25T08:09:57;9.40;99.90
2565;DHT22;1292;48.020;7.822;2023-04-25T08:12:24;9.40;99.90
2565;DHT22;1292;48.020;7.822;2023-04-25T08:14:51;9.50;99.90
2565;DHT22;1292;48.020;7.822;2023-04-25T08:17:18;9.60;99.90
2565;DHT22;1292;48.020;7.822;2023-04-25T08:19:45;9.70;99.90
2565;DHT22;1292;48.020;7.822;2023-04-25T08:22:13;9.70;99.90
2565;DHT22;1292;48.020;7.822;2023-04-25T08:24:40;9.70;99.90
2565;DHT22;1292;48.020;7.822;2023-04-25T08:27:07;9.70;99.90
2565;DHT22;1292;48.020;7.822;2023-04-25T08:29:34;9.80;99.90
2565;DHT22;1292;48.020;7.822;2023-04-25T08:32:01;9.80;99.90
2565;DHT22;1292;48.020;7.822;2023-04-25T08:34:28;9.70;99.90
2565;DHT22;1292;48.020;7.822;2023-04-25T08:36:55;9.60;99.90
2565;DHT22;1292;48.020;7.822;2023-04-25T08:39:23;9.70;99.90
2565;DHT22;1292;48.020;7.822;2023-04-25T08:41:50;9.70;99.90
2565;DHT22;1292;48.020;7.822;2023-04-25T08:44:19;9.70;99.90
2565;DHT22;1292;48.020;7.822;2023-04-25T08:46:47;9.60;99.90
2565;DHT22;1292;48.020;7.822;2023-04-25T08:49:16;9.70;99.90
2565;DHT22;1292;48.020;7.822;2023-04-25T08:51:45;9.70;99.90
2565;DHT22;1292;48.020;7.822;2023-04-25T08:54:14;9.60;99.90
2565;DHT22;1292;48.020;7.822;2023-04-25T08:56:44;9.60;99.90
2565;DHT22;1292;48.020;7.822;2023-04-25T08:59:11;9.70;99.90
2565;DHT22;1292;48.020;7.822;2023-04-25T09:01:39;9.70;99.90
2565;DHT22;1292;48.020;7.822;2023-04-25T09:04:06;9.70;99.90
2565;DHT22;1292;48.020;7.822;2023-04-25T09:06:33;9.80;99.90
2565;DHT22;1292;48.020;7.822;2023-04-25T09:09:02;9.80;99.90
2565;DHT22;1292;48.020;7.822;2023-04-25T09:11:30;9.80;99.90
2565;DHT22;1292;48.020;7.822;2023-04-25T09:14:12;9.80;99.90
2565;DHT22;1292;48.020;7.822;2023-04-25T09:16:59;9.90;99.90
2565;DHT22;1292;48.020;7.822;2023-04-25T09:19:27;9.90;99.90
2565;DHT22;1292;48.020;7.822;2023-04-25T09:21:54;9.90;99.90
2565;DHT22;1292;48.020;7.822;2023-04-25T09:24:30;9.80;99.90
2565;DHT22;1292;48.020;7.822;2023-04-25T09:26:57;9.90;99.90
2565;DHT22;1292;48.020;7.822;2023-04-25T09:29:31;10.00;99.90
2565;DHT22;1292;48.020;7.822;2023-04-25T09:32:17;9.90;99.90
2565;DHT22;1292;48.020;7.822;2023-04-25T09:34:46;10.10;99.90
2565;DHT22;1292;48.020;7.822;2023-04-25T09:37:17;10.20;99.90
2565;DHT22;1292;48.020;7.822;2023-04-25T09:39:45;10.20;99.90
2565;DHT22;1292;48.020;7.822;2023-04-25T09:42:12;10.30;99.90
2565;DHT22;1292;48.020;7.822;2023-04-25T09:44:43;10.50;99.90
2565;DHT22;1292;48.020;7.822;2023-04-25T09:47:11;10.70;99.90
2565;DHT22;1292;48.020;7.822;2023-04-25T09:49:40;10.90;99.90
2565;DHT22;1292;48.020;7.822;2023-04-25T09:52:09;11.10;99.90
2565;DHT22;1292;48.020;7.822;2023-04-25T09:54:40;11.10;99.90
2565;DHT22;1292;48.020;7.822;2023-04-25T09:57:11;11.20;99.90
2565;DHT22;1292;48.020;7.822;2023-04-25T09:59:39;11.40;99.90
2565;DHT22;1292;48.020;7.822;2023-04-25T10:02:11;11.40;99.90
2565;DHT22;1292;48.020;7.822;2023-04-25T10:04:38;11.50;99.90
2565;DHT22;1292;48.020;7.822;2023-04-25T10:07:06;11.60;99.90
2565;DHT22;1292;48.020;7.822;2023-04-25T10:09:36;11.50;99.90
2565;DHT22;1292;48.020;7.822;2023-04-25T10:12:05;11.50;99.90
2565;DHT22;1292;48.020;7.822;2023-04-25T10:14:32;11.40;99.90
2565;DHT22;1292;48.020;7.822;2023-04-25T10:17:00;11.40;99.90
2565;DHT22;1292;48.020;7.822;2023-04-25T10:19:28;11.40;99.90
2565;DHT22;1292;48.020;7.822;2023-04-25T10:22:04;11.30;99.90
2565;DHT22;1292;48.020;7.822;2023-04-25T10:24:32;11.30;99.90
2565;DHT22;1292;48.020;7.822;2023-04-25T10:27:00;11.30;99.90
2565;DHT22;1292;48.020;7.822;2023-04-25T10:29:27;11.20;99.90
2565;DHT22;1292;48.020;7.822;2023-04-25T10:31:54;11.10;99.90
2565;DHT22;1292;48.020;7.822;2023-04-25T10:34:24;11.00;99.90
2565;DHT22;1292;48.020;7.822;2023-04-25T10:37:05;11.00;99.90
2565;DHT22;1292;48.020;7.822;2023-04-25T10:39:35;11.10;99.90
2565;DHT22;1292;48.020;7.822;2023-04-25T10:42:02;11.10;99.90
2565;DHT22;1292;48.020;7.822;2023-04-25T10:44:29;11.10;99.90
2565;DHT22;1292;48.020;7.822;2023-04-25T10:46:57;11.10;99.90
2565;DHT22;1292;48.020;7.822;2023-04-25T10:49:32;11.20;99.90
2565;DHT22;1292;48.020;7.822;2023-04-25T10:52:14;11.20;99.90
2565;DHT22;1292;48.020;7.822;2023-04-25T10:54:42;11.20;99.90
2565;DHT22;1292;48.020;7.822;2023-04-25T10:57:31;11.30;99.90
2565;DHT22;1292;48.020;7.822;2023-04-25T11:00:00;11.50;99.90
2565;DHT22;1292;48.020;7.822;2023-04-25T11:02:32;11.60;99.90
2565;DHT22;1292;48.020;7.822;2023-04-25T11:05:03;11.60;99.90
2565;DHT22;1292;48.020;7.822;2023-04-25T11:07:37;11.50;99.90
2565;DHT22;1292;48.020;7.822;2023-04-25T11:10:05;11.70;99.90
2565;DHT22;1292;48.020;7.822;2023-04-25T11:12:33;11.90;99.90
2565;DHT22;1292;48.020;7.822;2023-04-25T11:15:01;12.00;99.90
2565;DHT22;1292;48.020;7.822;2023-04-25T11:17:29;12.20;99.90
2565;DHT22;1292;48.020;7.822;2023-04-25T11:19:56;12.30;99.90
2565;DHT22;1292;48.020;7.822;2023-04-25T11:22:23;12.40;99.90
2565;DHT22;1292;48.020;7.822;2023-04-25T11:24:51;12.30;99.90
2565;DHT22;1292;48.020;7.822;2023-04-25T11:27:18;12.40;99.90
2565;DHT22;1292;48.020;7.822;2023-04-25T11:29:45;12.40;99.90
2565;DHT22;1292;48.020;7.822;2023-04-25T11:32:14;12.30;99.90
2565;DHT22;1292;48.020;7.822;2023-04-25T11:34:43;12.20;99.90
2565;DHT22;1292;48.020;7.822;2023-04-25T11:37:10;12.20;99.90
2565;DHT22;1292;48.020;7.822;2023-04-25T11:39:38;12.20;99.90
2565;DHT22;1292;48.020;7.822;2023-04-25T11:42:06;12.30;99.90
2565;DHT22;1292;48.020;7.822;2023-04-25T11:44:33;12.30;99.90
2565;DHT22;1292;48.020;7.822;2023-04-25T11:47:00;12.30;99.90
2565;DHT22;1292;48.020;7.822;2023-04-25T11:49:30;12.30;99.90
2565;DHT22;1292;48.020;7.822;2023-04-25T11:51:57;12.40;99.90
2565;DHT22;1292;48.020;7.822;2023-04-25T11:54:24;12.20;99.90
2565;DHT22;1292;48.020;7.822;2023-04-25T11:56:51;11.70;99.90
2565;DHT22;1292;48.020;7.822;2023-04-25T11:59:23;11.30;99.90
2565;DHT22;1292;48.020;7.822;2023-04-25T12:01:50;11.50;99.90
2565;DHT22;1292;48.020;7.822;2023-04-25T12:04:18;11.70;99.90
2565;DHT22;1292;48.020;7.822;2023-04-25T12:06:47;12.10;99.90
2565;DHT22;1292;48.020;7.822;2023-04-25T12:09:16;12.20;99.90
2565;DHT22;1292;48.020;7.822;2023-04-25T12:11:43;12.50;99.90
2565;DHT22;1292;48.020;7.822;2023-04-25T12:14:11;12.80;99.90
2565;DHT22;1292;48.020;7.822;2023-04-25T12:16:43;13.10;99.90
2565;DHT22;1292;48.020;7.822;2023-04-25T12:19:13;13.30;99.90
2565;DHT22;1292;48.020;7.822;2023-04-25T12:21:40;13.50;99.90
2565;DHT22;1292;48.020;7.822;2023-04-25T12:24:11;13.70;99.90
2565;DHT22;1292;48.020;7.822;2023-04-25T12:26:50;13.50;99.90
2565;DHT22;1292;48.020;7.822;2023-04-25T12:29:18;13.70;99.90
2565;DHT22;1292;48.020;7.822;2023-04-25T12:31:47;13.80;99.90
2565;DHT22;1292;48.020;7.822;2023-04-25T12:34:13;13.80;99.90
2565;DHT22;1292;48.020;7.822;2023-04-25T12:36:41;13.80;99.90
2565;DHT22;1292;48.020;7.822;2023-04-25T12:39:07;13.90;99.90
2565;DHT22;1292;48.020;7.822;2023-04-25T12:41:35;14.10;99.90
2565;DHT22;1292;48.020;7.822;2023-04-25T12:44:03;14.20;99.90
2565;DHT22;1292;48.020;7.822;2023-04-25T12:46:30;14.30;99.90
2565;DHT22;1292;48.020;7.822;2023-04-25T12:48:58;14.40;99.90
2565;DHT22;1292;48.020;7.822;2023-04-25T12:51:25;14.60;99.90
2565;DHT22;1292;48.020;7.822;2023-04-25T12:53:53;14.70;99.90
2565;DHT22;1292;48.020;7.822;2023-04-25T12:56:20;14.80;99.90
2565;DHT22;1292;48.020;7.822;2023-04-25T12:58:47;14.80;99.90
2565;DHT22;1292;48.020;7.822;2023-04-25T13:01:14;15.20;99.90
2565;DHT22;1292;48.020;7.822;2023-04-25T13:03:41;15.40;99.90
2565;DHT22;1292;48.020;7.822;2023-04-25T13:06:09;15.60;99.90
2565;DHT22;1292;48.020;7.822;2023-04-25T13:08:36;15.60;99.90
2565;DHT22;1292;48.020;7.822;2023-04-25T13:11:04;15.60;99.90
2565;DHT22;1292;48.020;7.822;2023-04-25T13:13:31;15.60;99.90
2565;DHT22;1292;48.020;7.822;2023-04-25T13:16:00;15.50;99.90
2565;DHT22;1292;48.020;7.822;2023-04-25T13:18:27;15.40;99.90
2565;DHT22;1292;48.020;7.822;2023-04-25T13:20:54;15.20;99.90
2565;DHT22;1292;48.020;7.822;2023-04-25T13:23:22;15.10;99.90
2565;DHT22;1292;48.020;7.822;2023-04-25T13:25:50;14.50;99.90
2565;DHT22;1292;48.020;7.822;2023-04-25T13:28:16;13.40;99.90
2565;DHT22;1292;48.020;7.822;2023-04-25T13:30:43;12.70;99.90
2565;DHT22;1292;48.020;7.822;2023-04-25T13:33:11;12.20;99.90
2565;DHT22;1292;48.020;7.822;2023-04-25T13:35:38;12.10;99.90
2565;DHT22;1292;48.020;7.822;2023-04-25T13:38:05;11.80;99.90
2565;DHT22;1292;48.020;7.822;2023-04-25T13:40:33;11.80;99.90
2565;DHT22;1292;48.020;7.822;2023-04-25T13:43:01;12.10;99.90
2565;DHT22;1292;48.020;7.822;2023-04-25T13:45:28;12.20;99.90
2565;DHT22;1292;48.020;7.822;2023-04-25T13:47:55;12.20;99.90
2565;DHT22;1292;48.020;7.822;2023-04-25T13:50:21;12.30;99.90
2565;DHT22;1292;48.020;7.822;2023-04-25T13:52:48;12.30;99.90
2565;DHT22;1292;48.020;7.822;2023-04-25T13:55:15;12.40;99.90
2565;DHT22;1292;48.020;7.822;2023-04-25T13:57:43;12.60;99.90
2565;DHT22;1292;48.020;7.822;2023-04-25T14:00:12;12.70;99.90
2565;DHT22;1292;48.020;7.822;2023-04-25T14:02:39;12.80;99.90
2565;DHT22;1292;48.020;7.822;2023-04-25T14:05:06;12.80;99.90
2565;DHT22;1292;48.020;7.822;2023-04-25T14:07:33;12.70;99.90
2565;DHT22;1292;48.020;7.822;2023-04-25T14:10:01;12.80;99.90
2565;DHT22;1292;48.020;7.822;2023-04-25T14:12:29;12.80;99.90
2565;DHT22;1292;48.020;7.822;2023-04-25T14:14:57;12.80;99.90
2565;DHT22;1292;48.020;7.822;2023-04-25T14:17:24;13.00;99.90
2565;DHT22;1292;48.020;7.822;2023-04-25T14:19:51;13.00;99.90
2565;DHT22;1292;48.020;7.822;2023-04-25T14:22:18;12.90;99.90
2565;DHT22;1292;48.020;7.822;2023-04-25T14:24:45;12.90;99.90
2565;DHT22;1292;48.020;7.822;2023-04-25T14:27:11;13.00;99.90
2565;DHT22;1292;48.020;7.822;2023-04-25T14:29:38;12.80;99.90
2565;DHT22;1292;48.020;7.822;2023-04-25T14:32:07;12.80;99.90
2565;DHT22;1292;48.020;7.822;2023-04-25T14:34:34;12.60;99.90
2565;DHT22;1292;48.020;7.822;2023-04-25T14:37:01;12.60;99.90
2565;DHT22;1292;48.020;7.822;2023-04-25T14:39:27;12.60;99.90
2565;DHT22;1292;48.020;7.822;2023-04-25T14:41:54;12.50;99.90
2565;DHT22;1292;48.020;7.822;2023-04-25T14:44:21;12.60;99.90
2565;DHT22;1292;48.020;7.822;2023-04-25T14:46:48;12.70;99.90
2565;DHT22;1292;48.020;7.822;2023-04-25T14:49:18;12.80;99.90
2565;DHT22;1292;48.020;7.822;2023-04-25T14:51:45;12.80;99.90
2565;DHT22;1292;48.020;7.822;2023-04-25T14:54:12;12.60;99.90
2565;DHT22;1292;48.020;7.822;2023-04-25T14:56:39;12.30;99.90
2565;DHT22;1292;48.020;7.822;2023-04-25T14:59:06;12.20;99.90
2565;DHT22;1292;48.020;7.822;2023-04-25T15:01:33;11.90;99.90
2565;DHT22;1292;48.020;7.822;2023-04-25T15:04:00;11.80;99.90
2565;DHT22;1292;48.020;7.822;2023-04-25T15:06:28;11.60;99.90
2565;DHT22;1292;48.020;7.822;2023-04-25T15:08:55;11.40;99.90
2565;DHT22;1292;48.020;7.822;2023-04-25T15:11:22;11.30;99.90
2565;DHT22;1292;48.020;7.822;2023-04-25T15:13:49;11.00;99.90
2565;DHT22;1292;48.020;7.822;2023-04-25T15:16:16;10.80;99.90
2565;DHT22;1292;48.020;7.822;2023-04-25T15:18:43;10.70;99.90
2565;DHT22;1292;48.020;7.822;2023-04-25T15:21:10;10.80;99.90
2565;DHT22;1292;48.020;7.822;2023-04-25T15:23:38;10.60;99.90
2565;DHT22;1292;48.020;7.822;2023-04-25T15:26:05;10.60;99.90
2565;DHT22;1292;48.020;7.822;2023-04-25T15:28:31;10.50;99.90
2565;DHT22;1292;48.020;7.822;2023-04-25T15:30:59;10.60;99.90
2565;DHT22;1292;48.020;7.822;2023-04-25T15:33:26;10.60;99.90
2565;DHT22;1292;48.020;7.822;2023-04-25T15:35:53;10.80;99.90
2565;DHT22;1292;48.020;7.822;2023-04-25T15:38:19;10.90;99.90
2565;DHT22;1292;48.020;7.822;2023-04-25T15:40:47;10.90;99.90
2565;DHT22;1292;48.020;7.822;2023-04-25T15:43:15;10.90;99.90
2565;DHT22;1292;48.020;7.822;2023-04-25T15:45:41;11.00;99.90
2565;DHT22;1292;48.020;7.822;2023-04-25T15:48:09;11.00;99.90
2565;DHT22;1292;48.020;7.822;2023-04-25T15:50:36;11.00;99.90
2565;DHT22;1292;48.020;7.822;2023-04-25T15:53:03;11.00;99.90
2565;DHT22;1292;48.020;7.822;2023-04-25T15:55:30;11.00;99.90
2565;DHT22;1292;48.020;7.822;2023-04-25T15:57:59;11.10;99.90
2565;DHT22;1292;48.020;7.822;2023-04-25T16:00:26;11.20;99.90
2565;DHT22;1292;48.020;7.822;2023-04-25T16:02:53;11.20;99.90
2565;DHT22;1292;48.020;7.822;2023-04-25T16:05:21;11.40;99.90
2565;DHT22;1292;48.020;7.822;2023-04-25T16:07:48;11.50;99.90
2565;DHT22;1292;48.020;7.822;2023-04-25T16:10:18;11.60;99.90
2565;DHT22;1292;48.020;7.822;2023-04-25T16:12:46;11.70;99.90
2565;DHT22;1292;48.020;7.822;2023-04-25T16:15:15;11.70;99.90
2565;DHT22;1292;48.020;7.822;2023-04-25T16:17:42;11.80;99.90
2565;DHT22;1292;48.020;7.822;2023-04-25T16:20:11;11.80;99.90
2565;DHT22;1292;48.020;7.822;2023-04-25T16:22:39;11.80;99.90
2565;DHT22;1292;48.020;7.822;2023-04-25T16:25:07;11.80;99.90
2565;DHT22;1292;48.020;7.822;2023-04-25T16:27:35;11.90;99.90
2565;DHT22;1292;48.020;7.822;2023-04-25T16:30:04;12.00;99.90
2565;DHT22;1292;48.020;7.822;2023-04-25T16:32:33;11.90;99.90
2565;DHT22;1292;48.020;7.822;2023-04-25T16:35:01;11.90;99.90
2565;DHT22;1292;48.020;7.822;2023-04-25T16:37:28;11.90;99.90
2565;DHT22;1292;48.020;7.822;2023-04-25T16:39:55;11.80;99.90
2565;DHT22;1292;48.020;7.822;2023-04-25T16:42:22;11.80;99.90
2565;DHT22;1292;48.020;7.822;2023-04-25T16:44:49;11.60;99.90
2565;DHT22;1292;48.020;7.822;2023-04-25T16:47:16;11.40;99.90
2565;DHT22;1292;48.020;7.822;2023-04-25T16:49:44;11.50;99.90
2565;DHT22;1292;48.020;7.822;2023-04-25T16:52:11;11.50;99.90
2565;DHT22;1292;48.020;7.822;2023-04-25T16:54:38;11.60;99.90
2565;DHT22;1292;48.020;7.822;2023-04-25T16:57:05;11.50;99.90
2565;DHT22;1292;48.020;7.822;2023-04-25T16:59:35;11.50;99.90
2565;DHT22;1292;48.020;7.822;2023-04-25T17:02:02;11.50;99.90
2565;DHT22;1292;48.020;7.822;2023-04-25T17:04:29;11.60;99.90
2565;DHT22;1292;48.020;7.822;2023-04-25T17:06:57;11.50;99.90
2565;DHT22;1292;48.020;7.822;2023-04-25T17:09:24;11.50;99.90
2565;DHT22;1292;48.020;7.822;2023-04-25T17:11:51;11.50;99.90
2565;DHT22;1292;48.020;7.822;2023-04-25T17:14:17;11.60;99.90
2565;DHT22;1292;48.020;7.822;2023-04-25T17:16:44;11.60;99.90
2565;DHT22;1292;48.020;7.822;2023-04-25T17:19:11;11.60;99.90
2565;DHT22;1292;48.020;7.822;2023-04-25T17:21:38;11.60;99.90
2565;DHT22;1292;48.020;7.822;2023-04-25T17:24:07;11.60;99.90
2565;DHT22;1292;48.020;7.822;2023-04-25T17:26:36;11.60;99.90
2565;DHT22;1292;48.020;7.822;2023-04-25T17:29:03;11.60;99.90
2565;DHT22;1292;48.020;7.822;2023-04-25T17:31:30;11.60;99.90
2565;DHT22;1292;48.020;7.822;2023-04-25T17:33:56;11.60;99.90
2565;DHT22;1292;48.020;7.822;2023-04-25T17:36:23;11.60;99.90
2565;DHT22;1292;48.020;7.822;2023-04-25T17:38:50;11.60;99.90
2565;DHT22;1292;48.020;7.822;2023-04-25T17:41:18;11.60;99.90
2565;DHT22;1292;48.020;7.822;2023-04-25T17:43:45;11.50;99.90
2565;DHT22;1292;48.020;7.822;2023-04-25T17:46:12;11.50;99.90
2565;DHT22;1292;48.020;7.822;2023-04-25T17:48:39;11.50;99.90
2565;DHT22;1292;48.020;7.822;2023-04-25T17:51:05;11.50;99.90
2565;DHT22;1292;48.020;7.822;2023-04-25T17:53:34;11.50;99.90
2565;DHT22;1292;48.020;7.822;2023-04-25T17:56:01;11.40;99.90
2565;DHT22;1292;48.020;7.822;2023-04-25T17:58:29;11.40;99.90
2565;DHT22;1292;48.020;7.822;2023-04-25T18:00:56;11.40;99.90
2565;DHT22;1292;48.020;7.822;2023-04-25T18:03:23;11.40;99.90
2565;DHT22;1292;48.020;7.822;2023-04-25T18:05:50;11.30;99.90
2565;DHT22;1292;48.020;7.822;2023-04-25T18:08:17;11.30;99.90
2565;DHT22;1292;48.020;7.822;2023-04-25T18:10:46;11.30;99.90
2565;DHT22;1292;48.020;7.822;2023-04-25T18:13:13;11.30;99.90
2565;DHT22;1292;48.020;7.822;2023-04-25T18:15:43;11.30;99.90
2565;DHT22;1292;48.020;7.822;2023-04-25T18:18:09;11.30;99.90
2565;DHT22;1292;48.020;7.822;2023-04-25T18:20:44;11.30;99.90
2565;DHT22;1292;48.020;7.822;2023-04-25T18:23:11;11.30;99.90
2565;DHT22;1292;48.020;7.822;2023-04-25T18:25:38;11.30;99.90
2565;DHT22;1292;48.020;7.822;2023-04-25T18:28:06;11.30;99.90
2565;DHT22;1292;48.020;7.822;2023-04-25T18:30:33;11.30;99.90
2565;DHT22;1292;48.020;7.822;2023-04-25T18:33:02;11.30;99.90
2565;DHT22;1292;48.020;7.822;2023-04-25T18:35:28;11.30;99.90
2565;DHT22;1292;48.020;7.822;2023-04-25T18:37:55;11.20;99.90
2565;DHT22;1292;48.020;7.822;2023-04-25T18:40:22;11.30;99.90
2565;DHT22;1292;48.020;7.822;2023-04-25T18:42:49;11.20;99.90
2565;DHT22;1292;48.020;7.822;2023-04-25T18:45:16;11.20;99.90
2565;DHT22;1292;48.020;7.822;2023-04-25T18:47:42;11.10;99.90
2565;DHT22;1292;48.020;7.822;2023-04-25T18:50:12;11.10;99.90
2565;DHT22;1292;48.020;7.822;2023-04-25T18:52:40;11.10;99.90
2565;DHT22;1292;48.020;7.822;2023-04-25T18:55:08;11.00;99.90
2565;DHT22;1292;48.020;7.822;2023-04-25T18:57:35;11.10;99.90
2565;DHT22;1292;48.020;7.822;2023-04-25T19:00:03;11.10;99.90
2565;DHT22;1292;48.020;7.822;2023-04-25T19:02:31;11.10;99.90
2565;DHT22;1292;48.020;7.822;2023-04-25T19:04:58;11.10;99.90
2565;DHT22;1292;48.020;7.822;2023-04-25T19:07:26;11.00;99.90
2565;DHT22;1292;48.020;7.822;2023-04-25T19:09:55;11.10;99.90
2565;DHT22;1292;48.020;7.822;2023-04-25T19:12:22;11.10;99.90
2565;DHT22;1292;48.020;7.822;2023-04-25T19:14:49;11.10;99.90
2565;DHT22;1292;48.020;7.822;2023-04-25T19:17:16;11.10;99.90
2565;DHT22;1292;48.020;7.822;2023-04-25T19:19:43;11.10;99.90
2565;DHT22;1292;48.020;7.822;2023-04-25T19:22:10;11.10;99.90
2565;DHT22;1292;48.020;7.822;2023-04-25T19:24:38;11.10;99.90
2565;DHT22;1292;48.020;7.822;2023-04-25T19:27:05;11.10;99.90
2565;DHT22;1292;48.020;7.822;2023-04-25T19:29:32;11.00;99.90
2565;DHT22;1292;48.020;7.822;2023-04-25T19:31:59;11.00;99.90
2565;DHT22;1292;48.020;7.822;2023-04-25T19:34:27;11.00;99.90
2565;DHT22;1292;48.020;7.822;2023-04-25T19:36:54;11.00;99.90
2565;DHT22;1292;48.020;7.822;2023-04-25T19:39:21;11.00;99.90
2565;DHT22;1292;48.020;7.822;2023-04-25T19:41:50;11.00;99.90
2565;DHT22;1292;48.020;7.822;2023-04-25T19:44:16;11.00;99.90
2565;DHT22;1292;48.020;7.822;2023-04-25T19:46:43;11.00;99.90
2565;DHT22;1292;48.020;7.822;2023-04-25T19:49:11;10.90;99.90
2565;DHT22;1292;48.020;7.822;2023-04-25T19:51:38;10.90;99.90
2565;DHT22;1292;48.020;7.822;2023-04-25T19:54:05;10.90;99.90
2565;DHT22;1292;48.020;7.822;2023-04-25T19:56:32;10.90;99.90
2565;DHT22;1292;48.020;7.822;2023-04-25T19:59:00;10.90;99.90
2565;DHT22;1292;48.020;7.822;2023-04-25T20:01:27;10.80;99.90
2565;DHT22;1292;48.020;7.822;2023-04-25T20:03:54;10.80;99.90
2565;DHT22;1292;48.020;7.822;2023-04-25T20:06:21;10.80;99.90
2565;DHT22;1292;48.020;7.822;2023-04-25T20:08:48;10.70;99.90
2565;DHT22;1292;48.020;7.822;2023-04-25T20:11:15;10.70;99.90
2565;DHT22;1292;48.020;7.822;2023-04-25T20:13:42;10.70;99.90
2565;DHT22;1292;48.020;7.822;2023-04-25T20:16:10;10.50;99.90
2565;DHT22;1292;48.020;7.822;2023-04-25T20:18:38;10.50;99.90
2565;DHT22;1292;48.020;7.822;2023-04-25T20:21:06;10.30;99.90
2565;DHT22;1292;48.020;7.822;2023-04-25T20:23:33;10.30;99.90
2565;DHT22;1292;48.020;7.822;2023-04-25T20:25:59;10.30;99.90
2565;DHT22;1292;48.020;7.822;2023-04-25T20:28:27;10.20;99.90
2565;DHT22;1292;48.020;7.822;2023-04-25T20:30:53;10.00;99.90
2565;DHT22;1292;48.020;7.822;2023-04-25T20:33:22;10.00;99.90
2565;DHT22;1292;48.020;7.822;2023-04-25T20:35:48;10.00;99.90
2565;DHT22;1292;48.020;7.822;2023-04-25T20:38:15;10.00;99.90
2565;DHT22;1292;48.020;7.822;2023-04-25T20:40:42;10.00;99.90
2565;DHT22;1292;48.020;7.822;2023-04-25T20:43:09;9.90;99.90
2565;DHT22;1292;48.020;7.822;2023-04-25T20:45:37;9.80;99.90
2565;DHT22;1292;48.020;7.822;2023-04-25T20:48:04;9.80;99.90
2565;DHT22;1292;48.020;7.822;2023-04-25T20:50:32;9.80;99.90
2565;DHT22;1292;48.020;7.822;2023-04-25T20:52:59;9.70;99.90
2565;DHT22;1292;48.020;7.822;2023-04-25T20:55:26;9.60;99.90
2565;DHT22;1292;48.020;7.822;2023-04-25T20:57:52;9.60;99.90
